createdAt,value
2017-04-25T00:00:07.765Z,946.54
2017-04-25T00:01:07.530Z,946.53
2017-04-25T00:02:08.054Z,946.53
2017-04-25T00:03:07.595Z,946.48
2017-04-25T00:04:08.166Z,946.47
2017-04-25T00:05:07.804Z,946.46
2017-04-25T00:06:07.372Z,946.48
2017-04-25T00:07:07.952Z,946.45
2017-04-25T00:08:07.494Z,946.43
2017-04-25T00:09:08.034Z,946.41
2017-04-25T00:10:07.614Z,946.44
2017-04-25T00:11:08.404Z,946.42
2017-04-25T00:12:07.876Z,946.40
2017-04-25T00:13:07.346Z,946.33
2017-04-25T00:14:07.401Z,946.29
2017-04-25T00:15:07.998Z,946.38
2017-04-25T00:16:07.657Z,946.40
2017-04-25T00:17:08.399Z,946.36
2017-04-25T00:18:07.834Z,946.33
2017-04-25T00:19:07.395Z,946.39
2017-04-25T00:20:07.937Z,946.36
2017-04-25T00:21:07.769Z,946.31
2017-04-25T00:22:07.253Z,946.23
2017-04-25T00:23:07.800Z,946.24
2017-04-25T00:24:07.275Z,946.30
2017-04-25T00:25:07.791Z,946.24
2017-04-25T00:26:07.319Z,946.27
2017-04-25T00:27:07.837Z,946.27
2017-04-25T00:28:07.232Z,946.23
2017-04-25T00:29:07.805Z,946.20
2017-04-25T00:30:07.335Z,946.20
2017-04-25T00:31:07.855Z,946.19
2017-04-25T00:32:07.510Z,946.18
2017-04-25T00:33:08.280Z,946.12
2017-04-25T00:34:07.847Z,946.11
2017-04-25T00:35:07.385Z,946.12
2017-04-25T00:36:07.880Z,946.17
2017-04-25T00:37:07.405Z,946.13
2017-04-25T00:38:07.936Z,946.12
2017-04-25T00:39:07.449Z,946.10
2017-04-25T00:40:08.185Z,946.13
2017-04-25T00:41:07.690Z,946.18
2017-04-25T00:42:08.274Z,946.14
2017-04-25T00:43:07.841Z,946.13
2017-04-25T00:44:07.380Z,946.10
2017-04-25T00:45:07.883Z,946.13
2017-04-25T00:46:07.449Z,946.14
2017-04-25T00:47:07.965Z,946.08
2017-04-25T00:48:07.549Z,946.15
2017-04-25T00:49:08.121Z,946.11
2017-04-25T00:50:07.711Z,946.11
2017-04-25T00:51:08.337Z,946.11
2017-04-25T00:52:07.847Z,946.09
2017-04-25T00:53:07.319Z,946.12
2017-04-25T00:54:07.897Z,946.11
2017-04-25T00:55:07.704Z,946.09
2017-04-25T00:56:08.225Z,946.09
2017-04-25T00:57:07.758Z,946.09
2017-04-25T00:58:07.600Z,946.09
2017-04-25T00:59:08.117Z,946.10
2017-04-25T01:00:07.845Z,946.09
2017-04-25T01:01:07.707Z,946.11
2017-04-25T01:02:08.412Z,946.12
2017-04-25T01:03:08.016Z,946.13
2017-04-25T01:04:07.471Z,946.13
2017-04-25T01:05:08.095Z,946.19
2017-04-25T01:06:07.954Z,946.20
2017-04-25T01:07:07.571Z,946.19
2017-04-25T01:08:08.278Z,946.25
2017-04-25T01:09:07.782Z,946.19
2017-04-25T01:10:17.986Z,946.23
2017-04-25T01:11:07.459Z,946.24
2017-04-25T01:12:08.016Z,946.25
2017-04-25T01:13:07.583Z,946.30
2017-04-25T01:14:08.360Z,946.29
2017-04-25T01:15:08.042Z,946.33
2017-04-25T01:16:07.750Z,946.38
2017-04-25T01:17:07.445Z,946.37
2017-04-25T01:18:08.007Z,946.39
2017-04-25T01:19:07.586Z,946.31
2017-04-25T01:20:08.123Z,946.24
2017-04-25T01:21:07.708Z,946.19
2017-04-25T01:22:08.282Z,946.18
2017-04-25T01:23:07.849Z,946.22
2017-04-25T01:24:07.391Z,946.13
2017-04-25T01:25:08.145Z,946.12
2017-04-25T01:26:07.939Z,946.09
2017-04-25T01:27:07.748Z,946.03
2017-04-25T01:28:07.189Z,946.07
2017-04-25T01:29:07.803Z,945.97
2017-04-25T01:30:07.921Z,946.02
2017-04-25T01:31:07.529Z,945.97
2017-04-25T01:32:07.967Z,945.98
2017-04-25T01:33:07.755Z,945.99
2017-04-25T01:34:07.317Z,945.91
2017-04-25T01:35:07.807Z,945.94
2017-04-25T01:36:08.615Z,945.92
2017-04-25T01:37:08.333Z,945.87
2017-04-25T01:38:08.138Z,945.88
2017-04-25T01:39:07.747Z,945.84
2017-04-25T01:40:07.436Z,945.89
2017-04-25T01:41:07.935Z,945.89
2017-04-25T01:42:07.475Z,945.88
2017-04-25T01:43:07.990Z,945.87
2017-04-25T01:44:07.446Z,945.90
2017-04-25T01:45:07.953Z,945.89
2017-04-25T01:46:07.490Z,945.84
2017-04-25T01:47:08.232Z,945.82
2017-04-25T01:48:07.958Z,945.81
2017-04-25T01:49:07.467Z,945.79
2017-04-25T01:50:08.000Z,945.75
2017-04-25T01:51:07.583Z,945.73
2017-04-25T01:52:08.251Z,945.63
2017-04-25T01:53:07.823Z,945.54
2017-04-25T01:54:07.462Z,945.53
2017-04-25T01:55:08.351Z,945.51
2017-04-25T01:56:07.836Z,945.55
2017-04-25T01:57:20.863Z,945.53
2017-04-25T01:58:07.412Z,945.54
2017-04-25T01:59:07.966Z,945.54
2017-04-25T02:00:07.591Z,945.54
2017-04-25T02:01:08.133Z,945.60
2017-04-25T02:02:07.643Z,945.58
2017-04-25T02:03:08.191Z,945.59
2017-04-25T02:04:07.663Z,945.61
2017-04-25T02:05:08.275Z,945.62
2017-04-25T02:06:07.834Z,945.64
2017-04-25T02:07:07.845Z,945.61
2017-04-25T02:08:07.448Z,945.61
2017-04-25T02:09:08.110Z,945.63
2017-04-25T02:10:07.864Z,945.64
2017-04-25T02:11:07.366Z,945.63
2017-04-25T02:12:07.954Z,945.57
2017-04-25T02:13:07.454Z,945.54
2017-04-25T02:14:07.977Z,945.52
2017-04-25T02:15:07.533Z,945.53
2017-04-25T02:16:08.097Z,945.48
2017-04-25T02:17:07.826Z,945.46
2017-04-25T02:18:07.515Z,945.48
2017-04-25T02:19:08.080Z,945.47
2017-04-25T02:20:07.667Z,945.49
2017-04-25T02:21:08.268Z,945.54
2017-04-25T02:22:07.745Z,945.52
2017-04-25T02:23:07.232Z,945.51
2017-04-25T02:24:07.841Z,945.55
2017-04-25T02:25:07.346Z,945.54
2017-04-25T02:26:07.941Z,945.54
2017-04-25T02:27:07.557Z,945.58
2017-04-25T02:28:08.099Z,945.56
2017-04-25T02:29:07.647Z,945.52
2017-04-25T02:30:08.400Z,945.57
2017-04-25T02:31:07.874Z,945.49
2017-04-25T02:32:08.187Z,945.51
2017-04-25T02:33:07.865Z,945.50
2017-04-25T02:34:07.538Z,945.51
2017-04-25T02:35:08.089Z,945.46
2017-04-25T02:36:08.097Z,945.48
2017-04-25T02:37:07.690Z,945.47
2017-04-25T02:38:07.657Z,945.47
2017-04-25T02:39:08.219Z,945.53
2017-04-25T02:40:07.733Z,945.47
2017-04-25T02:41:08.336Z,945.50
2017-04-25T02:42:08.145Z,945.43
2017-04-25T02:43:07.729Z,945.39
2017-04-25T02:44:08.387Z,945.42
2017-04-25T02:45:07.941Z,945.41
2017-04-25T02:46:07.410Z,945.39
2017-04-25T02:47:08.042Z,945.40
2017-04-25T02:48:07.587Z,945.39
2017-04-25T02:49:08.143Z,945.37
2017-04-25T02:50:07.972Z,945.28
2017-04-25T02:51:07.513Z,945.35
2017-04-25T02:52:08.081Z,945.29
2017-04-25T02:53:07.897Z,945.30
2017-04-25T02:54:07.354Z,945.29
2017-04-25T02:55:07.889Z,945.34
2017-04-25T02:56:07.472Z,945.32
2017-04-25T02:57:08.097Z,945.35
2017-04-25T02:58:07.688Z,945.31
2017-04-25T02:59:08.280Z,945.32
2017-04-25T03:00:07.744Z,945.29
2017-04-25T03:01:08.520Z,945.25
2017-04-25T03:02:08.135Z,945.28
2017-04-25T03:03:07.807Z,945.24
2017-04-25T03:04:07.390Z,945.23
2017-04-25T03:05:07.948Z,945.24
2017-04-25T03:06:07.477Z,945.27
2017-04-25T03:07:08.242Z,945.24
2017-04-25T03:08:07.756Z,945.24
2017-04-25T03:09:07.303Z,945.23
2017-04-25T03:10:07.815Z,945.21
2017-04-25T03:11:07.423Z,945.18
2017-04-25T03:12:08.018Z,945.16
2017-04-25T03:13:07.626Z,945.16
2017-04-25T03:14:08.209Z,945.19
2017-04-25T03:15:07.832Z,945.17
2017-04-25T03:16:07.411Z,945.19
2017-04-25T03:17:08.074Z,945.13
2017-04-25T03:18:07.785Z,945.19
2017-04-25T03:19:07.308Z,945.15
2017-04-25T03:20:07.778Z,945.14
2017-04-25T03:21:07.228Z,945.17
2017-04-25T03:22:07.797Z,945.08
2017-04-25T03:23:07.227Z,945.08
2017-04-25T03:24:07.921Z,945.12
2017-04-25T03:25:07.621Z,945.10
2017-04-25T03:26:08.176Z,945.10
2017-04-25T03:27:08.095Z,945.07
2017-04-25T03:28:07.565Z,945.10
2017-04-25T03:29:08.185Z,945.08
2017-04-25T03:30:07.819Z,945.08
2017-04-25T03:31:07.423Z,945.08
2017-04-25T03:32:07.994Z,945.10
2017-04-25T03:33:07.469Z,945.07
2017-04-25T03:34:08.290Z,945.07
2017-04-25T03:35:07.952Z,945.11
2017-04-25T03:36:07.438Z,945.10
2017-04-25T03:37:08.077Z,945.12
2017-04-25T03:38:07.568Z,945.10
2017-04-25T03:39:08.145Z,945.06
2017-04-25T03:40:07.793Z,945.11
2017-04-25T03:41:07.238Z,945.13
2017-04-25T03:42:07.833Z,945.11
2017-04-25T03:43:07.490Z,945.13
2017-04-25T03:44:08.021Z,945.05
2017-04-25T03:45:07.901Z,945.09
2017-04-25T03:46:07.818Z,945.07
2017-04-25T03:47:07.706Z,945.05
2017-04-25T03:48:08.342Z,945.08
2017-04-25T03:49:07.784Z,945.01
2017-04-25T03:50:07.378Z,945.06
2017-04-25T03:51:07.838Z,945.06
2017-04-25T03:52:07.429Z,945.08
2017-04-25T03:53:07.938Z,945.10
2017-04-25T03:54:07.547Z,945.11
2017-04-25T03:55:08.059Z,945.12
2017-04-25T03:56:07.687Z,945.15
2017-04-25T03:57:08.202Z,945.18
2017-04-25T03:58:07.726Z,945.19
2017-04-25T03:59:08.251Z,945.20
2017-04-25T04:00:07.809Z,945.21
2017-04-25T04:01:07.350Z,945.19
2017-04-25T04:02:07.976Z,945.22
2017-04-25T04:03:07.548Z,945.22
2017-04-25T04:04:08.162Z,945.22
2017-04-25T04:05:07.736Z,945.18
2017-04-25T04:06:07.250Z,945.16
2017-04-25T04:07:07.429Z,945.19
2017-04-25T04:08:08.184Z,945.24
2017-04-25T04:09:07.755Z,945.25
2017-04-25T04:10:07.273Z,945.18
2017-04-25T04:11:07.759Z,945.21
2017-04-25T04:12:08.366Z,945.21
2017-04-25T04:13:07.813Z,945.24
2017-04-25T04:14:07.309Z,945.21
2017-04-25T04:15:08.800Z,945.21
2017-04-25T04:16:07.303Z,945.21
2017-04-25T04:17:08.184Z,945.22
2017-04-25T04:18:07.685Z,945.25
2017-04-25T04:19:08.283Z,945.19
2017-04-25T04:20:07.874Z,945.21
2017-04-25T04:21:07.327Z,945.26
2017-04-25T04:22:07.858Z,945.27
2017-04-25T04:23:07.430Z,945.24
2017-04-25T04:24:07.976Z,945.24
2017-04-25T04:25:10.208Z,945.24
2017-04-25T04:26:07.969Z,945.22
2017-04-25T04:27:07.471Z,945.25
2017-04-25T04:28:08.022Z,945.23
2017-04-25T04:29:07.547Z,945.21
2017-04-25T04:30:08.033Z,945.18
2017-04-25T04:31:07.621Z,945.24
2017-04-25T04:32:08.035Z,945.25
2017-04-25T04:33:07.360Z,945.28
2017-04-25T04:34:07.981Z,945.26
2017-04-25T04:35:07.793Z,945.26
2017-04-25T04:36:07.362Z,945.23
2017-04-25T04:37:08.067Z,945.24
2017-04-25T04:38:07.520Z,945.16
2017-04-25T04:39:08.104Z,945.21
2017-04-25T04:40:07.607Z,945.22
2017-04-25T04:41:08.170Z,945.24
2017-04-25T04:42:07.642Z,945.20
2017-04-25T04:43:08.233Z,945.19
2017-04-25T04:44:07.747Z,945.23
2017-04-25T04:45:08.297Z,945.22
2017-04-25T04:46:07.815Z,945.24
2017-04-25T04:47:07.262Z,945.27
2017-04-25T04:48:07.825Z,945.30
2017-04-25T04:49:07.378Z,945.28
2017-04-25T04:50:07.888Z,945.27
2017-04-25T04:51:07.368Z,945.27
2017-04-25T04:52:07.885Z,945.23
2017-04-25T04:53:07.366Z,945.23
2017-04-25T04:54:07.786Z,945.20
2017-04-25T04:55:07.276Z,945.21
2017-04-25T04:56:07.836Z,945.21
2017-04-25T04:57:07.348Z,945.19
2017-04-25T04:58:07.938Z,945.18
2017-04-25T04:59:07.867Z,945.19
2017-04-25T05:00:07.411Z,945.17
2017-04-25T05:01:07.962Z,945.15
2017-04-25T05:02:07.488Z,945.16
2017-04-25T05:03:08.076Z,945.18
2017-04-25T05:04:07.594Z,945.16
2017-04-25T05:05:08.057Z,945.19
2017-04-25T05:06:07.572Z,945.20
2017-04-25T05:07:08.284Z,945.20
2017-04-25T05:08:07.815Z,945.23
2017-04-25T05:09:07.382Z,945.30
2017-04-25T05:10:07.857Z,945.19
2017-04-25T05:11:07.321Z,945.27
2017-04-25T05:12:07.910Z,945.28
2017-04-25T05:13:07.374Z,945.27
2017-04-25T05:14:07.937Z,945.28
2017-04-25T05:15:07.767Z,945.27
2017-04-25T05:16:08.255Z,945.28
2017-04-25T05:17:07.882Z,945.30
2017-04-25T05:18:07.537Z,945.32
2017-04-25T05:19:08.153Z,945.34
2017-04-25T05:20:07.663Z,945.30
2017-04-25T05:21:08.298Z,945.27
2017-04-25T05:22:07.845Z,945.30
2017-04-25T05:23:07.654Z,945.32
2017-04-25T05:24:08.214Z,945.31
2017-04-25T05:25:07.741Z,945.27
2017-04-25T05:26:08.208Z,945.32
2017-04-25T05:27:07.668Z,945.30
2017-04-25T05:28:08.192Z,945.30
2017-04-25T05:29:07.621Z,945.36
2017-04-25T05:30:08.171Z,945.33
2017-04-25T05:31:07.692Z,945.37
2017-04-25T05:32:08.253Z,945.42
2017-04-25T05:33:07.823Z,945.39
2017-04-25T05:34:07.528Z,945.45
2017-04-25T05:35:08.030Z,945.50
2017-04-25T05:36:07.501Z,945.56
2017-04-25T05:37:08.200Z,945.58
2017-04-25T05:38:07.828Z,945.57
2017-04-25T05:39:07.259Z,945.48
2017-04-25T05:40:07.802Z,945.51
2017-04-25T05:41:07.296Z,945.51
2017-04-25T05:42:07.770Z,945.51
2017-04-25T05:43:08.309Z,945.51
2017-04-25T05:44:07.742Z,945.51
2017-04-25T05:45:08.212Z,945.53
2017-04-25T05:46:07.692Z,945.54
2017-04-25T05:47:08.131Z,945.63
2017-04-25T05:48:07.705Z,945.65
2017-04-25T05:49:08.229Z,945.68
2017-04-25T05:50:07.787Z,945.72
2017-04-25T05:51:08.349Z,945.70
2017-04-25T05:52:07.843Z,945.71
2017-04-25T05:53:07.527Z,945.67
2017-04-25T05:54:07.973Z,945.68
2017-04-25T05:55:07.480Z,945.67
2017-04-25T05:56:07.962Z,945.66
2017-04-25T05:57:07.418Z,945.65
2017-04-25T05:58:07.911Z,945.68
2017-04-25T05:59:07.455Z,945.64
2017-04-25T06:00:08.009Z,945.65
2017-04-25T06:01:07.662Z,945.68
2017-04-25T06:02:08.295Z,945.67
2017-04-25T06:03:08.265Z,945.70
2017-04-25T06:04:07.838Z,945.70
2017-04-25T06:05:08.450Z,945.63
2017-04-25T06:06:07.995Z,945.70
2017-04-25T06:07:07.885Z,945.64
2017-04-25T06:08:07.529Z,945.66
2017-04-25T06:09:08.127Z,945.67
2017-04-25T06:10:07.668Z,945.67
2017-04-25T06:11:08.354Z,945.66
2017-04-25T06:12:07.918Z,945.60
2017-04-25T06:13:07.457Z,945.61
2017-04-25T06:14:07.958Z,945.58
2017-04-25T06:15:07.607Z,945.59
2017-04-25T06:16:08.166Z,945.61
2017-04-25T06:17:08.020Z,945.60
2017-04-25T06:18:08.011Z,945.67
2017-04-25T06:19:07.410Z,945.62
2017-04-25T06:20:07.955Z,945.68
2017-04-25T06:21:07.439Z,945.66
2017-04-25T06:22:08.004Z,945.70
2017-04-25T06:23:07.455Z,945.63
2017-04-25T06:24:08.032Z,945.62
2017-04-25T06:25:07.636Z,945.62
2017-04-25T06:26:08.267Z,945.64
2017-04-25T06:27:07.897Z,945.64
2017-04-25T06:28:07.324Z,945.69
2017-04-25T06:29:07.905Z,945.71
2017-04-25T06:30:07.498Z,945.74
2017-04-25T06:31:07.974Z,945.77
2017-04-25T06:32:07.468Z,945.77
2017-04-25T06:33:08.008Z,945.72
2017-04-25T06:34:07.544Z,945.71
2017-04-25T06:35:08.127Z,945.71
2017-04-25T06:36:08.010Z,945.76
2017-04-25T06:37:07.691Z,945.81
2017-04-25T06:38:08.358Z,945.80
2017-04-25T06:39:07.938Z,945.83
2017-04-25T06:40:07.415Z,945.82
2017-04-25T06:41:08.021Z,945.81
2017-04-25T06:42:07.690Z,945.89
2017-04-25T06:43:08.281Z,945.88
2017-04-25T06:44:07.886Z,945.87
2017-04-25T06:45:07.690Z,945.93
2017-04-25T06:46:08.258Z,945.96
2017-04-25T06:47:08.127Z,946.01
2017-04-25T06:48:07.669Z,945.99
2017-04-25T06:49:08.326Z,946.03
2017-04-25T06:50:07.814Z,946.03
2017-04-25T06:51:07.428Z,946.05
2017-04-25T06:52:07.975Z,946.12
2017-04-25T06:53:07.723Z,946.16
2017-04-25T06:54:08.292Z,946.18
2017-04-25T06:55:07.855Z,946.15
2017-04-25T06:56:07.419Z,946.22
2017-04-25T06:57:08.107Z,946.18
2017-04-25T06:58:07.765Z,946.22
2017-04-25T06:59:07.804Z,946.21
2017-04-25T07:00:07.339Z,946.22
2017-04-25T07:01:07.911Z,946.26
2017-04-25T07:02:07.508Z,946.23
2017-04-25T07:03:08.013Z,946.29
2017-04-25T07:04:07.524Z,946.33
2017-04-25T07:05:08.127Z,946.29
2017-04-25T07:06:07.788Z,946.22
2017-04-25T07:07:07.492Z,946.27
2017-04-25T07:08:08.017Z,946.19
2017-04-25T07:09:07.840Z,946.22
2017-04-25T07:10:07.816Z,946.18
2017-04-25T07:11:22.921Z,946.19
2017-04-25T07:12:07.554Z,946.18
2017-04-25T07:13:08.123Z,946.18
2017-04-25T07:14:07.955Z,946.17
2017-04-25T07:15:07.507Z,946.22
2017-04-25T07:16:07.964Z,946.13
2017-04-25T07:17:07.755Z,946.12
2017-04-25T07:18:08.306Z,946.13
2017-04-25T07:19:07.903Z,946.12
2017-04-25T07:20:07.409Z,946.13
2017-04-25T07:21:07.864Z,946.20
2017-04-25T07:22:07.366Z,946.15
2017-04-25T07:23:08.121Z,946.17
2017-04-25T07:24:07.697Z,946.16
2017-04-25T07:25:08.287Z,946.14
2017-04-25T07:26:07.810Z,946.20
2017-04-25T07:27:07.317Z,946.15
2017-04-25T07:28:07.901Z,946.13
2017-04-25T07:29:07.424Z,946.11
2017-04-25T07:30:08.033Z,946.05
2017-04-25T07:31:07.641Z,946.00
2017-04-25T07:32:08.516Z,945.92
2017-04-25T07:33:08.105Z,945.91
2017-04-25T07:34:07.592Z,945.94
2017-04-25T07:35:08.216Z,946.06
2017-04-25T07:36:07.801Z,946.11
2017-04-25T07:37:07.457Z,946.21
2017-04-25T07:38:07.997Z,946.25
2017-04-25T07:39:07.471Z,946.34
2017-04-25T07:40:08.027Z,946.37
2017-04-25T07:41:07.638Z,946.37
2017-04-25T07:42:07.575Z,946.35
2017-04-25T07:43:08.142Z,946.31
2017-04-25T07:44:07.695Z,946.33
2017-04-25T07:45:08.421Z,946.31
2017-04-25T07:46:07.970Z,946.31
2017-04-25T07:47:07.502Z,946.34
2017-04-25T07:48:08.118Z,946.36
2017-04-25T07:49:07.617Z,946.40
2017-04-25T07:50:08.160Z,946.36
2017-04-25T07:51:07.762Z,946.34
2017-04-25T07:52:07.295Z,946.30
2017-04-25T07:53:07.775Z,946.34
2017-04-25T07:54:07.587Z,946.35
2017-04-25T07:55:08.183Z,946.37
2017-04-25T07:56:07.811Z,946.38
2017-04-25T07:57:07.326Z,946.33
2017-04-25T07:58:07.857Z,946.39
2017-04-25T07:59:07.334Z,946.43
2017-04-25T08:00:07.883Z,946.41
2017-04-25T08:01:07.568Z,946.50
2017-04-25T08:02:08.127Z,946.54
2017-04-25T08:03:07.662Z,946.61
2017-04-25T08:04:08.295Z,946.63
2017-04-25T08:05:08.809Z,946.68
2017-04-25T08:06:07.690Z,946.68
2017-04-25T08:07:08.361Z,946.64
2017-04-25T08:08:07.905Z,946.62
2017-04-25T08:09:07.481Z,946.52
2017-04-25T08:10:08.076Z,946.46
2017-04-25T08:11:07.673Z,946.48
2017-04-25T08:12:08.190Z,946.51
2017-04-25T08:13:07.746Z,946.52
2017-04-25T08:14:07.282Z,946.57
2017-04-25T08:15:07.720Z,946.48
2017-04-25T08:16:08.263Z,946.44
2017-04-25T08:17:08.010Z,946.36
2017-04-25T08:18:07.471Z,946.28
2017-04-25T08:19:08.084Z,946.22
2017-04-25T08:20:07.597Z,946.24
2017-04-25T08:21:08.199Z,946.28
2017-04-25T08:22:07.687Z,946.34
2017-04-25T08:23:08.222Z,946.40
2017-04-25T08:24:07.787Z,946.44
2017-04-25T08:25:07.227Z,946.51
2017-04-25T08:26:07.728Z,946.54
2017-04-25T08:27:08.252Z,946.49
2017-04-25T08:28:07.810Z,946.47
2017-04-25T08:29:07.392Z,946.46
2017-04-25T08:30:07.930Z,946.47
2017-04-25T08:31:07.407Z,946.52
2017-04-25T08:32:08.009Z,946.52
2017-04-25T08:33:07.535Z,946.49
2017-04-25T08:34:08.138Z,946.46
2017-04-25T08:35:07.645Z,946.41
2017-04-25T08:36:08.459Z,946.44
2017-04-25T08:37:08.446Z,946.45
2017-04-25T08:38:08.013Z,946.45
2017-04-25T08:39:07.463Z,946.47
2017-04-25T08:40:07.752Z,946.47
2017-04-25T08:41:07.228Z,946.42
2017-04-25T08:42:07.686Z,946.42
2017-04-25T08:43:08.131Z,946.49
2017-04-25T08:44:07.620Z,946.48
2017-04-25T08:45:08.076Z,946.50
2017-04-25T08:46:07.584Z,946.47
2017-04-25T08:47:08.127Z,946.46
2017-04-25T08:48:07.643Z,946.47
2017-04-25T08:49:08.153Z,946.57
2017-04-25T08:50:07.683Z,946.62
2017-04-25T08:51:08.232Z,946.65
2017-04-25T08:52:07.931Z,946.71
2017-04-25T08:53:07.471Z,946.76
2017-04-25T08:54:07.934Z,946.77
2017-04-25T08:55:07.394Z,946.74
2017-04-25T08:56:07.880Z,946.71
2017-04-25T08:57:07.323Z,946.77
2017-04-25T08:58:07.808Z,946.75
2017-04-25T08:59:07.491Z,946.77
2017-04-25T09:00:08.325Z,946.74
2017-04-25T09:01:07.854Z,946.76
2017-04-25T09:02:07.730Z,946.81
2017-04-25T09:03:08.367Z,946.79
2017-04-25T09:04:07.793Z,946.80
2017-04-25T09:05:07.339Z,946.78
2017-04-25T09:06:07.840Z,946.69
2017-04-25T09:07:07.453Z,946.56
2017-04-25T09:08:08.002Z,946.55
2017-04-25T09:09:07.592Z,946.59
2017-04-25T09:10:08.500Z,946.59
2017-04-25T09:11:08.078Z,946.67
2017-04-25T09:12:07.606Z,946.76
2017-04-25T09:13:08.084Z,946.88
2017-04-25T09:14:07.508Z,946.82
2017-04-25T09:15:08.077Z,946.84
2017-04-25T09:16:07.620Z,946.86
2017-04-25T09:17:08.493Z,946.88
2017-04-25T09:18:08.012Z,946.88
2017-04-25T09:19:07.578Z,946.77
2017-04-25T09:20:07.435Z,946.79
2017-04-25T09:21:08.281Z,946.77
2017-04-25T09:22:07.764Z,946.82
2017-04-25T09:23:07.328Z,946.80
2017-04-25T09:24:07.874Z,946.77
2017-04-25T09:25:07.414Z,946.77
2017-04-25T09:26:07.913Z,946.66
2017-04-25T09:27:07.533Z,946.74
2017-04-25T09:28:08.080Z,946.75
2017-04-25T09:29:07.671Z,946.71
2017-04-25T09:30:08.550Z,946.63
2017-04-25T09:31:08.050Z,946.55
2017-04-25T09:32:07.622Z,946.45
2017-04-25T09:33:08.188Z,946.43
2017-04-25T09:34:07.716Z,946.50
2017-04-25T09:35:07.302Z,946.45
2017-04-25T09:36:07.846Z,946.43
2017-04-25T09:37:07.429Z,946.49
2017-04-25T09:38:08.149Z,946.42
2017-04-25T09:39:07.768Z,946.44
2017-04-25T09:40:07.293Z,946.52
2017-04-25T09:41:07.842Z,946.53
2017-04-25T09:42:07.415Z,946.54
2017-04-25T09:43:08.118Z,946.53
2017-04-25T09:44:07.676Z,946.62
2017-04-25T09:45:08.210Z,946.59
2017-04-25T09:46:07.722Z,946.52
2017-04-25T09:47:07.333Z,946.52
2017-04-25T09:48:07.897Z,946.47
2017-04-25T09:49:07.444Z,946.50
2017-04-25T09:50:08.045Z,946.51
2017-04-25T09:51:07.550Z,946.44
2017-04-25T09:52:08.365Z,946.50
2017-04-25T09:53:07.927Z,946.43
2017-04-25T09:54:07.489Z,946.38
2017-04-25T09:55:08.074Z,946.43
2017-04-25T09:56:07.816Z,946.50
2017-04-25T09:57:07.436Z,946.51
2017-04-25T09:58:08.010Z,946.41
2017-04-25T09:59:07.626Z,946.43
2017-04-25T10:00:08.272Z,946.50
2017-04-25T10:01:07.785Z,946.47
2017-04-25T10:02:07.427Z,946.52
2017-04-25T10:03:08.137Z,946.50
2017-04-25T10:04:07.699Z,946.50
2017-04-25T10:05:08.322Z,946.55
2017-04-25T10:06:07.793Z,946.51
2017-04-25T10:07:07.338Z,946.63
2017-04-25T10:08:07.830Z,946.47
2017-04-25T10:09:07.335Z,946.51
2017-04-25T10:10:08.066Z,946.45
2017-04-25T10:11:08.572Z,946.45
2017-04-25T10:12:08.091Z,946.43
2017-04-25T10:13:07.840Z,946.44
2017-04-25T10:14:07.537Z,946.49
2017-04-25T10:15:08.018Z,946.56
2017-04-25T10:16:07.487Z,946.46
2017-04-25T10:17:08.207Z,946.49
2017-04-25T10:18:08.011Z,946.39
2017-04-25T10:19:07.494Z,946.38
2017-04-25T10:20:08.134Z,946.35
2017-04-25T10:21:07.629Z,946.30
2017-04-25T10:22:08.235Z,946.29
2017-04-25T10:23:07.733Z,946.24
2017-04-25T10:24:07.330Z,946.18
2017-04-25T10:25:07.978Z,946.15
2017-04-25T10:26:07.565Z,946.13
2017-04-25T10:27:08.198Z,946.08
2017-04-25T10:28:07.994Z,946.08
2017-04-25T10:29:07.586Z,946.08
2017-04-25T10:30:08.181Z,946.05
2017-04-25T10:31:07.801Z,946.07
2017-04-25T10:32:07.389Z,945.97
2017-04-25T10:33:08.007Z,946.00
2017-04-25T10:34:07.763Z,945.99
2017-04-25T10:35:07.354Z,945.96
2017-04-25T10:36:07.910Z,945.94
2017-04-25T10:37:07.574Z,946.02
2017-04-25T10:38:08.119Z,946.08
2017-04-25T10:39:07.720Z,946.06
2017-04-25T10:40:08.219Z,946.09
2017-04-25T10:41:07.763Z,946.07
2017-04-25T10:42:07.167Z,946.10
2017-04-25T10:43:07.905Z,946.06
2017-04-25T10:44:07.410Z,946.00
2017-04-25T10:45:07.973Z,946.02
2017-04-25T10:46:07.695Z,945.99
2017-04-25T10:47:08.246Z,945.99
2017-04-25T10:48:08.047Z,946.07
2017-04-25T10:49:07.521Z,946.00
2017-04-25T10:50:08.097Z,945.98
2017-04-25T10:51:07.619Z,945.91
2017-04-25T10:52:08.206Z,945.88
2017-04-25T10:53:07.886Z,945.96
2017-04-25T10:54:07.399Z,945.98
2017-04-25T10:55:07.970Z,945.96
2017-04-25T10:56:07.531Z,945.95
2017-04-25T10:57:08.108Z,945.98
2017-04-25T10:58:07.607Z,945.94
2017-04-25T10:59:08.182Z,945.97
2017-04-25T11:00:07.657Z,945.92
2017-04-25T11:01:08.225Z,945.87
2017-04-25T11:02:07.761Z,945.91
2017-04-25T11:03:07.399Z,945.92
2017-04-25T11:04:07.952Z,945.89
2017-04-25T11:05:07.516Z,945.89
2017-04-25T11:06:08.483Z,945.86
2017-04-25T11:07:07.850Z,945.87
2017-04-25T11:08:07.556Z,945.89
2017-04-25T11:09:09.234Z,945.94
2017-04-25T11:10:08.016Z,945.87
2017-04-25T11:11:22.328Z,945.94
2017-04-25T11:12:07.935Z,945.87
2017-04-25T11:13:07.581Z,945.90
2017-04-25T11:14:10.200Z,945.91
2017-04-25T11:15:07.887Z,945.85
2017-04-25T11:16:07.586Z,945.86
2017-04-25T11:17:08.306Z,945.83
2017-04-25T11:18:53.666Z,945.83
2017-04-25T11:19:08.385Z,945.83
2017-04-25T11:20:08.066Z,945.79
2017-04-25T11:21:07.808Z,945.76
2017-04-25T11:22:07.512Z,945.73
2017-04-25T11:23:08.876Z,945.75
2017-04-25T11:24:07.402Z,945.78
2017-04-25T11:25:08.880Z,945.80
2017-04-25T11:26:07.355Z,945.80
2017-04-25T11:27:07.883Z,945.81
2017-04-25T11:28:07.351Z,945.78
2017-04-25T11:29:07.918Z,945.76
2017-04-25T11:30:07.396Z,945.78
2017-04-25T11:31:07.958Z,945.77
2017-04-25T11:32:07.428Z,945.78
2017-04-25T11:33:08.056Z,945.78
2017-04-25T11:34:07.540Z,945.79
2017-04-25T11:35:08.154Z,945.80
2017-04-25T11:36:07.634Z,945.86
2017-04-25T11:37:08.355Z,945.76
2017-04-25T11:38:07.896Z,945.84
2017-04-25T11:39:07.452Z,945.78
2017-04-25T11:40:08.318Z,945.81
2017-04-25T11:41:07.868Z,945.77
2017-04-25T11:42:07.426Z,945.76
2017-04-25T11:43:07.951Z,945.76
2017-04-25T11:44:07.527Z,945.82
2017-04-25T11:45:08.219Z,945.78
2017-04-25T11:46:07.699Z,945.84
2017-04-25T11:47:08.115Z,945.84
2017-04-25T11:48:07.377Z,945.75
2017-04-25T11:49:08.161Z,945.72
2017-04-25T11:50:07.670Z,945.72
2017-04-25T11:51:08.232Z,945.72
2017-04-25T11:52:07.838Z,945.77
2017-04-25T11:53:07.636Z,945.73
2017-04-25T11:54:08.238Z,945.73
2017-04-25T11:55:07.822Z,945.69
2017-04-25T11:56:07.294Z,945.74
2017-04-25T11:57:07.799Z,945.75
2017-04-25T11:58:07.488Z,945.68
2017-04-25T11:59:08.065Z,945.72
2017-04-25T12:00:07.550Z,945.73
2017-04-25T12:01:08.098Z,945.63
2017-04-25T12:02:07.635Z,945.62
2017-04-25T12:03:08.443Z,945.65
2017-04-25T12:04:07.899Z,945.58
2017-04-25T12:05:07.399Z,945.62
2017-04-25T12:06:07.867Z,945.58
2017-04-25T12:07:07.513Z,945.62
2017-04-25T12:08:08.051Z,945.56
2017-04-25T12:09:07.621Z,945.63
2017-04-25T12:10:08.165Z,945.52
2017-04-25T12:11:07.991Z,945.55
2017-04-25T12:12:07.471Z,945.52
2017-04-25T12:13:08.044Z,945.52
2017-04-25T12:14:07.608Z,945.52
2017-04-25T12:15:08.126Z,945.48
2017-04-25T12:16:07.635Z,945.51
2017-04-25T12:17:08.318Z,945.53
2017-04-25T12:18:08.164Z,945.57
2017-04-25T12:19:07.648Z,945.56
2017-04-25T12:20:08.145Z,945.56
2017-04-25T12:21:07.665Z,945.52
2017-04-25T12:22:08.253Z,945.54
2017-04-25T12:23:07.850Z,945.50
2017-04-25T12:24:07.424Z,945.63
2017-04-25T12:25:07.993Z,945.53
2017-04-25T12:26:07.539Z,945.51
2017-04-25T12:27:08.088Z,945.52
2017-04-25T12:28:07.682Z,945.59